Time;durP1;ratioP1;P1;durP2;ratioP2;P2;SDS_P1;SDS_P2;PMS_P1;PMS_P2;Temp;Humidity;BMP_temperature;BMP_pressure;BME280_temperature;BME280_humidity;BME280_pressure;Samples;Min_cycle;Max_cycle;Signal;HPM_P1;HPM_P2
2022/01/25 00:25:29;;;;;;;86.63;27.20;;;4.60;99.90;;;;;;4938991;29;20256;-87
2022/01/25 00:28:16;;;;;;;85.68;26.35;;;4.60;99.90;;;;;;4938608;29;20175;-87
2022/01/25 00:33:53;;;;;;;85.63;31.65;;;4.50;99.90;;;;;;4917967;29;20173;-88
2022/01/25 00:36:40;;;;;;;86.05;31.25;;;4.40;99.90;;;;;;4934733;29;20200;-87
2022/01/25 00:39:27;;;;;;;83.78;28.63;;;4.30;99.90;;;;;;4942876;29;20176;-88
2022/01/25 00:41:53;;;;;;;89.60;35.45;;;4.40;99.90;;;;;;4942657;29;20153;-87
2022/01/25 00:44:54;;;;;;;89.73;46.23;;;4.30;99.90;;;;;;4941197;29;20188;-87
2022/01/25 00:47:25;;;;;;;96.15;53.92;;;4.20;99.90;;;;;;4942624;29;20171;-87
2022/01/25 00:50:31;;;;;;;99.60;69.90;;;4.20;99.90;;;;;;4941820;29;20208;-87
2022/01/25 00:55:34;;;;;;;88.63;38.50;;;4.30;99.90;;;;;;4942712;29;20208;-87
2022/01/25 00:58:13;;;;;;;90.65;42.13;;;4.30;99.90;;;;;;4941351;29;20263;-87
2022/01/25 01:01:10;;;;;;;94.80;51.42;;;4.40;99.90;;;;;;4941036;29;20276;-87
2022/01/25 01:03:41;;;;;;;92.18;47.10;;;4.30;99.90;;;;;;4942941;29;20169;-87
2022/01/25 01:06:10;;;;;;;97.15;63.67;;;4.30;99.90;;;;;;4942142;29;20191;-87
2022/01/25 01:08:54;;;;;;;107.10;71.00;;;4.20;99.90;;;;;;4941614;29;20184;-87
2022/01/25 01:11:41;;;;;;;93.40;57.22;;;4.20;99.90;;;;;;4941131;29;20228;-87
2022/01/25 01:31:00;;;;;;;86.80;37.28;;;4.20;99.90;;;;;;4941762;29;20164;-87
2022/01/25 01:35:41;;;;;;;89.00;43.40;;;4.30;99.90;;;;;;4940922;29;20590;-87
2022/01/25 01:42:53;;;;;;;92.22;55.10;;;4.20;99.90;;;;;;5009910;23;20186;-88
2022/01/25 01:45:06;;;;;;;102.88;58.60;;;4.20;99.90;;;;;;4931816;29;20214;-88
2022/01/25 01:47:50;;;;;;;96.10;55.63;;;4.20;99.90;;;;;;4938565;29;20576;-88
2022/01/25 01:50:28;;;;;;;95.05;53.53;;;4.20;99.90;;;;;;4939462;29;20636;-88
2022/01/25 01:52:54;;;;;;;99.57;67.28;;;4.20;99.90;;;;;;4939432;29;20152;-88
2022/01/25 01:55:21;;;;;;;107.55;78.47;;;4.10;99.90;;;;;;4939590;29;20188;-88
2022/01/25 01:57:49;;;;;;;102.78;74.38;;;4.10;99.90;;;;;;4939513;29;20200;-88
2022/01/25 02:00:17;;;;;;;100.60;76.28;;;4.10;99.90;;;;;;4939525;29;20524;-88
2022/01/25 02:02:43;;;;;;;96.40;66.97;;;4.10;99.90;;;;;;4938029;29;20584;-88
2022/01/25 02:05:09;;;;;;;97.77;66.57;;;4.20;99.90;;;;;;4939646;29;20180;-88
2022/01/25 02:07:35;;;;;;;100.30;62.97;;;4.20;99.90;;;;;;4941836;29;20420;-88
2022/01/25 02:10:05;;;;;;;109.35;72.47;;;4.20;99.90;;;;;;4940427;29;20495;-88
2022/01/25 02:12:31;;;;;;;100.05;62.28;;;4.20;99.90;;;;;;4940101;29;20647;-88
2022/01/25 02:14:56;;;;;;;93.57;54.87;;;4.20;99.90;;;;;;4940198;29;20292;-88
2022/01/25 02:23:23;;;;;;;92.28;47.97;;;4.20;99.90;;;;;;4939231;29;20732;-88
2022/01/25 02:25:53;;;;;;;98.97;63.47;;;4.20;99.90;;;;;;4937505;29;20211;-88
2022/01/25 02:28:20;;;;;;;100.90;60.10;;;4.20;99.90;;;;;;4938704;29;20168;-88
2022/01/25 02:30:49;;;;;;;92.95;45.13;;;4.20;99.90;;;;;;4937344;29;20180;-88
2022/01/25 02:33:14;;;;;;;91.15;40.80;;;4.20;99.90;;;;;;4938509;29;20164;-88
2022/01/25 02:35:41;;;;;;;92.03;46.77;;;4.20;99.90;;;;;;4937647;29;20216;-88
2022/01/25 02:38:07;;;;;;;91.57;43.85;;;4.20;99.90;;;;;;4938534;29;20184;-88
2022/01/25 02:40:38;;;;;;;94.32;47.75;;;4.20;99.90;;;;;;4937902;29;20192;-88
2022/01/25 02:43:04;;;;;;;104.63;62.85;;;4.20;99.90;;;;;;4938403;29;20177;-88
2022/01/25 02:45:35;;;;;;;97.27;43.10;;;4.20;99.90;;;;;;4937288;29;20203;-88
2022/01/25 02:50:48;;;;;;;98.15;55.50;;;4.30;99.90;;;;;;4938361;29;20220;-88
2022/01/25 02:53:14;;;;;;;95.30;42.58;;;4.20;99.90;;;;;;4938102;29;20164;-88
2022/01/25 02:55:40;;;;;;;95.87;55.17;;;4.30;99.90;;;;;;4937654;29;20279;-88
2022/01/25 02:58:08;;;;;;;92.37;50.33;;;4.20;99.90;;;;;;4936748;29;20452;-88
2022/01/25 03:00:34;;;;;;;94.20;53.78;;;4.20;99.90;;;;;;4938272;29;20460;-88
2022/01/25 03:03:00;;;;;;;104.45;55.90;;;4.20;99.90;;;;;;4937826;29;20164;-88
2022/01/25 03:05:28;;;;;;;86.77;37.53;;;4.30;99.90;;;;;;4938240;29;20209;-88
2022/01/25 03:07:57;;;;;;;87.45;41.15;;;4.20;99.90;;;;;;4936527;29;20260;-88
2022/01/25 03:10:32;;;;;;;98.57;49.47;;;4.20;99.90;;;;;;4937937;29;20164;-88
2022/01/25 03:12:57;;;;;;;89.72;35.08;;;4.20;99.90;;;;;;4936711;29;20171;-88
2022/01/25 03:15:30;;;;;;;90.73;35.10;;;4.20;99.90;;;;;;4937548;29;20192;-88
2022/01/25 03:18:06;;;;;;;90.85;42.10;;;4.20;99.90;;;;;;4937976;29;20184;-85
2022/01/25 03:23:16;;;;;;;89.55;37.13;;;4.20;99.90;;;;;;4937822;29;20171;-86
2022/01/25 03:25:47;;;;;;;91.00;44.55;;;4.20;99.90;;;;;;4936759;29;20690;-85
2022/01/25 03:28:14;;;;;;;93.63;50.13;;;4.20;99.90;;;;;;4937355;29;20196;-86
2022/01/25 03:30:39;;;;;;;92.63;43.83;;;4.20;99.90;;;;;;4937815;29;20175;-85
2022/01/25 03:33:08;;;;;;;89.63;36.23;;;4.30;99.90;;;;;;4937670;29;20252;-85
2022/01/25 03:35:34;;;;;;;89.45;34.42;;;4.30;99.90;;;;;;4937078;29;20235;-86
2022/01/25 03:37:59;;;;;;;85.60;30.07;;;4.20;99.90;;;;;;4937052;29;20196;-85
2022/01/25 03:40:33;;;;;;;92.10;39.83;;;4.20;99.90;;;;;;4937652;29;20625;-86
2022/01/25 03:42:59;;;;;;;88.60;34.72;;;4.30;99.90;;;;;;4937004;29;20184;-86
2022/01/25 03:45:31;;;;;;;95.30;34.42;;;4.30;99.90;;;;;;4937203;29;20188;-86
2022/01/25 03:49:49;;;;;;;93.15;32.90;;;4.40;99.90;;;;;;4936630;29;20169;-86
2022/01/25 03:50:49;;;;;;;87.88;31.98;;;4.30;99.90;;;;;;4936727;29;20169;-85
2022/01/25 03:53:16;;;;;;;91.15;32.40;;;4.20;99.90;;;;;;4935901;29;20654;-85
2022/01/25 03:55:42;;;;;;;88.63;31.27;;;4.20;99.90;;;;;;4936856;29;20204;-86
2022/01/25 03:58:08;;;;;;;88.97;32.88;;;4.20;99.90;;;;;;4936813;29;20195;-85
2022/01/25 04:00:38;;;;;;;86.87;32.10;;;4.20;99.90;;;;;;4936779;29;20165;-86
2022/01/25 04:03:12;;;;;;;87.25;30.65;;;4.30;99.90;;;;;;4937088;29;20228;-86
2022/01/25 04:05:49;;;;;;;93.07;30.63;;;4.40;99.90;;;;;;4936960;29;20327;-86
2022/01/25 04:08:16;;;;;;;93.90;29.63;;;4.50;99.90;;;;;;4936949;29;20162;-86
2022/01/25 04:10:42;;;;;;;85.85;28.52;;;4.40;99.90;;;;;;4936586;29;20168;-86
2022/01/25 04:13:09;;;;;;;95.28;28.20;;;4.30;99.90;;;;;;4935938;29;20173;-86
2022/01/25 04:15:41;;;;;;;89.38;34.45;;;4.40;99.90;;;;;;4935762;29;20601;-85
2022/01/25 04:20:41;;;;;;;90.82;33.40;;;4.20;99.90;;;;;;4936911;29;20613;-85
2022/01/25 04:25:50;;;;;;;87.47;30.67;;;4.20;99.90;;;;;;4936956;29;20244;-85
2022/01/25 04:28:16;;;;;;;85.77;29.97;;;4.10;99.90;;;;;;4935432;29;20180;-85
2022/01/25 04:30:42;;;;;;;93.30;36.57;;;4.20;99.90;;;;;;4936596;29;20168;-86
2022/01/25 04:33:38;;;;;;;94.03;36.07;;;4.20;99.90;;;;;;4935411;29;20534;-86
2022/01/25 04:49:33;;;;;;;93.05;39.35;;;4.10;99.90;;;;;;4936675;29;20160;-85
2022/01/25 04:52:07;;;;;;;91.28;36.80;;;4.10;99.90;;;;;;4936515;29;20173;-85
2022/01/25 04:59:50;;;;;;;95.90;45.50;;;4.10;99.90;;;;;;4936207;29;20576;-85
2022/01/25 05:02:47;;;;;;;89.72;37.33;;;4.10;99.90;;;;;;4936439;29;20629;-86
2022/01/25 05:05:09;;;;;;;94.35;44.40;;;4.10;99.90;;;;;;4935783;29;20215;-86
2022/01/25 05:07:47;;;;;;;94.32;47.47;;;4.10;99.90;;;;;;4934851;29;20212;-86
2022/01/25 05:10:14;;;;;;;91.47;35.53;;;4.10;99.90;;;;;;4936150;29;20168;-86
2022/01/25 05:12:47;;;;;;;94.75;31.30;;;4.10;99.90;;;;;;4936508;29;20203;-86
2022/01/25 05:17:57;;;;;;;89.47;28.58;;;4.20;99.90;;;;;;4936492;29;20279;-86
2022/01/25 05:23:06;;;;;;;90.25;27.85;;;4.30;99.90;;;;;;4939863;29;20184;-85
2022/01/25 05:25:32;;;;;;;90.87;29.30;;;4.30;99.90;;;;;;4939262;29;20188;-86
2022/01/25 05:27:58;;;;;;;89.67;32.53;;;4.30;99.90;;;;;;4939361;29;20203;-86
2022/01/25 05:30:23;;;;;;;89.67;28.83;;;4.30;99.90;;;;;;4939450;29;20251;-86
2022/01/25 05:32:49;;;;;;;89.90;26.13;;;4.20;99.90;;;;;;4939126;29;20727;-86
2022/01/25 05:35:15;;;;;;;89.37;31.57;;;4.20;99.90;;;;;;4939143;29;20212;-86
2022/01/25 05:37:43;;;;;;;97.37;30.87;;;4.20;99.90;;;;;;4939165;29;20184;-86
2022/01/25 05:40:15;;;;;;;92.15;33.20;;;4.20;99.90;;;;;;4938514;29;20702;-85
2022/01/25 05:43:52;;;;;;;100.40;36.75;;;4.20;99.90;;;;;;4939261;29;20191;-86
2022/01/25 05:48:13;;;;;;;92.57;45.08;;;4.20;99.90;;;;;;4939279;29;20176;-85
2022/01/25 05:50:39;;;;;;;104.20;67.20;;;4.10;99.90;;;;;;4937886;29;20173;-86
2022/01/25 05:53:04;;;;;;;107.77;62.03;;;4.00;99.90;;;;;;4939190;29;20532;-86
2022/01/25 05:55:36;;;;;;;102.67;75.80;;;4.00;99.90;;;;;;4939019;29;20716;-86
2022/01/25 05:58:05;;;;;;;100.45;63.17;;;4.00;99.90;;;;;;4939419;29;20192;-86
2022/01/25 06:00:41;;;;;;;102.03;70.47;;;4.00;99.90;;;;;;4938874;29;20164;-85
2022/01/25 06:03:07;;;;;;;112.95;88.43;;;4.00;99.90;;;;;;4938911;29;20252;-85
2022/01/25 06:05:34;;;;;;;105.00;72.18;;;4.00;99.90;;;;;;4938684;29;20191;-86
2022/01/25 06:08:08;;;;;;;101.93;61.35;;;4.00;99.90;;;;;;4938872;29;20264;-85
2022/01/25 06:10:34;;;;;;;111.05;75.18;;;4.10;99.90;;;;;;4937971;29;20160;-86
2022/01/25 06:13:00;;;;;;;109.03;70.63;;;4.10;99.90;;;;;;4937262;29;20533;-86
2022/01/25 06:15:28;;;;;;;98.43;56.40;;;4.10;99.90;;;;;;4937417;29;20437;-85
2022/01/25 06:17:54;;;;;;;108.00;77.78;;;4.10;99.90;;;;;;4938340;29;20193;-85
2022/01/25 06:20:20;;;;;;;111.80;83.97;;;4.10;99.90;;;;;;4939875;29;20175;-86
2022/01/25 06:22:47;;;;;;;102.90;66.88;;;4.00;99.90;;;;;;4939249;29;20208;-86
2022/01/25 06:25:13;;;;;;;103.78;64.75;;;4.10;99.90;;;;;;4936984;29;20636;-86
2022/01/25 06:27:40;;;;;;;104.30;68.10;;;4.10;99.90;;;;;;4938429;29;20180;-86
2022/01/25 06:30:11;;;;;;;114.22;88.30;;;4.10;99.90;;;;;;4938673;29;20183;-86
2022/01/25 06:32:40;;;;;;;102.47;71.68;;;4.00;99.90;;;;;;4936175;29;20172;-86
2022/01/25 06:35:06;;;;;;;103.88;70.43;;;4.00;99.90;;;;;;4938245;29;20188;-85
2022/01/25 06:37:41;;;;;;;114.55;82.18;;;4.00;99.90;;;;;;4938092;29;20195;-86
2022/01/25 06:40:08;;;;;;;101.22;50.92;;;4.00;99.90;;;;;;4938904;29;20509;-85
2022/01/25 06:42:37;;;;;;;104.38;64.78;;;4.00;99.90;;;;;;4936570;29;20243;-86
2022/01/25 06:45:16;;;;;;;101.80;52.80;;;4.10;99.90;;;;;;4936140;29;20691;-85
2022/01/25 06:48:04;;;;;;;107.15;56.60;;;4.10;99.90;;;;;;4936586;29;20199;-86
2022/01/25 06:50:29;;;;;;;95.15;44.15;;;4.30;99.90;;;;;;4936769;29;20161;-86
2022/01/25 06:53:04;;;;;;;100.13;42.57;;;4.40;99.90;;;;;;4936222;29;20660;-85
2022/01/25 06:55:30;;;;;;;95.68;40.55;;;4.40;99.90;;;;;;4936037;29;20571;-86
2022/01/25 07:01:41;;;;;;;88.82;30.48;;;4.40;99.90;;;;;;4937477;29;20218;-86
2022/01/25 07:04:07;;;;;;;89.05;24.75;;;4.60;99.90;;;;;;4937159;29;20156;-86
2022/01/25 07:06:35;;;;;;;94.93;29.73;;;4.60;99.90;;;;;;4937107;29;20165;-86
2022/01/25 07:09:08;;;;;;;88.63;28.77;;;4.70;99.90;;;;;;4937252;29;20416;-85
2022/01/25 07:11:39;;;;;;;90.55;30.63;;;4.70;99.90;;;;;;4936572;29;20185;-86
2022/01/25 07:15:14;;;;;;;;;;;;;;;;;;;;;
2022/01/25 07:18:16;;;;;;;89.20;29.88;;;4.70;99.90;;;;;;4937497;29;20204;-85
2022/01/25 07:21:11;;;;;;;90.13;31.17;;;4.70;99.90;;;;;;4936519;29;20533;-85
2022/01/25 07:27:19;;;;;;;;;;;;;;;;;;;;;
2022/01/25 07:30:04;;;;;;;91.70;31.05;;;4.50;99.90;;;;;;4915135;29;20187;-85
2022/01/25 07:33:14;;;;;;;98.60;35.88;;;4.50;99.90;;;;;;4935143;29;20533;-86
2022/01/25 07:36:42;;;;;;;;;;;;;;;;;;;;;
2022/01/25 07:39:11;;;;;;;94.30;30.52;;;4.60;99.90;;;;;;4893359;29;20232;-86
2022/01/25 07:44:42;;;;;;;89.57;28.58;;;4.50;99.90;;;;;;5019997;23;20235;-87
2022/01/25 07:48:14;;;;;;;90.05;25.58;;;4.50;99.90;;;;;;4944477;29;20184;-87
2022/01/25 07:50:35;;;;;;;;;;;;;;;;;;;;;
2022/01/25 07:53:37;;;;;;;91.07;27.05;;;4.50;99.90;;;;;;4947371;29;20232;-87
2022/01/25 07:56:28;;;;;;;91.15;25.23;;;4.40;99.90;;;;;;4928732;29;20196;-86
2022/01/25 08:03:43;;;;;;;;;;;;;;;;;;;;;
2022/01/25 08:09:01;;;;;;;94.60;27.55;;;4.40;99.90;;;;;;4145217;27;20234;-86
2022/01/25 08:22:09;;;;;;;91.70;25.77;;;4.40;99.90;;;;;;4857647;29;20204;-87
2022/01/25 08:25:04;;;;;;;90.38;24.15;;;4.30;99.90;;;;;;4902637;29;20193;-86
2022/01/25 08:28:01;;;;;;;86.68;22.92;;;4.40;99.90;;;;;;4904464;29;20253;-86
2022/01/25 08:30:36;;;;;;;93.68;25.45;;;4.30;99.90;;;;;;4920816;29;20178;-86
2022/01/25 08:33:18;;;;;;;92.00;26.08;;;4.40;99.90;;;;;;4907398;29;20150;-86
2022/01/25 08:35:50;;;;;;;90.80;26.85;;;4.30;99.90;;;;;;4921611;29;20190;-86
2022/01/25 08:38:21;;;;;;;92.13;31.85;;;4.40;99.90;;;;;;4919013;29;20290;-86
2022/01/25 08:41:18;;;;;;;89.65;26.33;;;4.40;99.90;;;;;;4920112;29;20504;-86
2022/01/25 08:43:50;;;;;;;90.20;26.42;;;4.40;99.90;;;;;;4905012;29;20184;-87
2022/01/25 08:47:23;;;;;;;96.15;27.80;;;4.50;99.90;;;;;;4918253;29;20249;-86
2022/01/25 08:49:23;;;;;;;88.05;31.40;;;4.40;99.90;;;;;;4903740;29;20180;-87
2022/01/25 08:51:57;;;;;;;89.65;28.52;;;4.50;99.90;;;;;;4904659;29;20190;-87
2022/01/25 08:54:48;;;;;;;;;;;;;;;;;;;;;
2022/01/25 08:57:18;;;;;;;97.22;37.13;;;4.50;99.90;;;;;;4908996;29;20226;-86
2022/01/25 08:59:47;;;;;;;92.70;31.17;;;4.50;99.90;;;;;;4893139;29;20194;-87
2022/01/25 09:02:31;;;;;;;91.95;31.50;;;4.40;99.90;;;;;;4909932;29;20241;-86
2022/01/25 09:05:12;;;;;;;;;;;;;;;;;;;;;
2022/01/25 09:07:44;;;;;;;98.18;38.80;;;4.50;99.90;;;;;;4909350;29;20276;-86
2022/01/25 09:10:15;;;;;;;95.63;36.88;;;4.50;99.90;;;;;;4925013;29;20225;-86
2022/01/25 09:12:44;;;;;;;92.65;39.60;;;4.60;99.90;;;;;;4923445;29;20218;-86
2022/01/25 09:15:27;;;;;;;100.75;38.33;;;4.60;99.90;;;;;;4923375;29;20190;-87
2022/01/25 09:17:55;;;;;;;95.75;50.83;;;4.60;99.90;;;;;;4924537;29;20220;-86
2022/01/25 09:20:23;;;;;;;98.97;48.90;;;4.70;99.90;;;;;;4909050;29;20166;-86
2022/01/25 09:23:01;;;;;;;;;;;;;;;;;;;;;
2022/01/25 09:25:29;;;;;;;98.80;45.95;;;4.80;99.90;;;;;;4909505;29;20276;-86
2022/01/25 09:27:57;;;;;;;95.80;47.67;;;4.70;99.90;;;;;;4909103;29;20178;-87
2022/01/25 09:30:23;;;;;;;97.57;47.35;;;4.60;99.90;;;;;;4909914;29;20753;-87
2022/01/25 09:33:10;;;;;;;93.00;46.37;;;4.60;99.90;;;;;;4908751;29;20177;-87
2022/01/25 09:35:45;;;;;;;102.93;46.60;;;4.60;99.90;;;;;;4909095;29;20543;-87
2022/01/25 09:38:11;;;;;;;98.47;47.78;;;4.70;99.90;;;;;;4923981;29;20193;-86
2022/01/25 09:41:00;;;;;;;100.95;46.88;;;4.70;99.90;;;;;;4924337;29;20526;-87
2022/01/25 09:43:35;;;;;;;103.75;49.40;;;4.70;99.90;;;;;;4923601;29;20174;-86
2022/01/25 09:46:22;;;;;;;104.55;50.00;;;4.80;99.90;;;;;;4921954;29;20193;-86
2022/01/25 09:48:51;;;;;;;102.65;50.67;;;4.70;99.90;;;;;;4907115;29;20662;-87
2022/01/25 09:51:50;;;;;;;107.15;49.17;;;4.80;99.90;;;;;;4908446;29;20634;-86
2022/01/25 09:54:27;;;;;;;94.20;40.00;;;4.80;99.90;;;;;;4898643;29;20205;-87
2022/01/25 09:57:03;;;;;;;92.95;38.45;;;4.80;99.90;;;;;;4920804;29;20719;-87
2022/01/25 09:59:50;;;;;;;102.90;46.22;;;4.80;99.90;;;;;;4905673;29;20193;-86
2022/01/25 10:05:36;;;;;;;103.30;36.30;;;4.70;99.90;;;;;;4921545;29;20197;-86
2022/01/25 10:08:20;;;;;;;103.88;34.75;;;4.80;99.90;;;;;;4921146;29;20185;-86
2022/01/25 10:11:21;;;;;;;93.93;35.15;;;4.80;99.90;;;;;;4908644;29;20190;-87
2022/01/25 10:13:54;;;;;;;94.60;32.40;;;4.90;99.90;;;;;;4891636;29;20261;-87
2022/01/25 10:16:32;;;;;;;99.20;26.90;;;4.90;99.90;;;;;;4920559;29;20622;-87
2022/01/25 10:19:06;;;;;;;92.88;27.58;;;4.90;99.90;;;;;;4910962;29;20193;-88
2022/01/25 10:21:53;;;;;;;94.30;26.98;;;4.90;99.90;;;;;;4909153;29;20165;-87
2022/01/25 10:24:24;;;;;;;91.68;31.38;;;4.90;99.90;;;;;;4910079;29;20194;-87
2022/01/25 10:31:03;;;;;;;98.88;34.95;;;4.80;99.90;;;;;;4907732;29;20165;-86
2022/01/25 10:33:53;;;;;;;87.72;32.83;;;4.70;99.90;;;;;;4905432;29;20169;-87
2022/01/25 10:36:48;;;;;;;92.45;35.28;;;4.80;99.90;;;;;;4922422;29;20178;-86
2022/01/25 10:39:47;;;;;;;97.35;34.38;;;4.80;99.90;;;;;;4905629;29;20581;-86
2022/01/25 10:42:33;;;;;;;96.32;36.30;;;4.90;99.90;;;;;;4921763;29;20604;-87
2022/01/25 10:45:43;;;;;;;97.18;43.70;;;4.80;99.90;;;;;;4904833;29;20185;-86
2022/01/25 10:48:36;;;;;;;99.43;40.03;;;4.80;99.90;;;;;;4906614;29;20186;-87
2022/01/25 10:51:10;;;;;;;97.00;35.63;;;4.90;99.90;;;;;;4896942;29;20178;-86
2022/01/25 10:54:13;;;;;;;101.25;49.03;;;4.90;99.90;;;;;;4907563;29;20150;-86
2022/01/25 10:56:50;;;;;;;103.53;44.80;;;4.90;99.90;;;;;;4898089;29;20558;-87
2022/01/25 10:59:46;;;;;;;102.60;43.60;;;5.00;99.90;;;;;;4917325;29;20676;-87
2022/01/25 11:02:50;;;;;;;89.20;28.67;;;5.00;99.90;;;;;;4921707;29;20185;-87
2022/01/25 11:05:46;;;;;;;91.40;22.27;;;5.00;99.90;;;;;;4905065;29;20217;-87
2022/01/25 11:08:16;;;;;;;93.78;23.42;;;5.10;99.90;;;;;;4903152;29;20265;-87
2022/01/25 11:10:47;;;;;;;92.95;24.73;;;5.10;99.90;;;;;;4919436;29;20184;-87
2022/01/25 11:13:33;;;;;;;99.78;31.05;;;5.10;99.90;;;;;;4904999;29;20158;-86
2022/01/25 11:16:02;;;;;;;101.68;26.17;;;5.10;99.90;;;;;;4920657;29;20197;-87
2022/01/25 11:18:44;;;;;;;91.40;22.33;;;5.10;99.90;;;;;;4906476;29;20193;-87
2022/01/25 11:24:24;;;;;;;94.30;20.50;;;5.10;99.90;;;;;;4904474;29;20189;-86
2022/01/25 11:26:57;;;;;;;91.60;19.15;;;5.20;99.90;;;;;;4904506;29;20169;-87
2022/01/25 11:29:27;;;;;;;92.45;21.17;;;5.20;99.90;;;;;;4920702;29;20178;-86
2022/01/25 11:32:29;;;;;;;89.57;21.60;;;5.20;99.90;;;;;;4907402;29;20166;-87
2022/01/25 11:35:00;;;;;;;92.65;20.70;;;5.10;99.90;;;;;;4906710;29;20200;-87
2022/01/25 11:37:38;;;;;;;95.55;22.00;;;5.10;99.90;;;;;;4908771;29;20237;-87
2022/01/25 11:40:30;;;;;;;88.80;21.08;;;5.10;99.90;;;;;;4911382;29;20161;-87
2022/01/25 11:43:05;;;;;;;91.38;19.92;;;5.10;99.90;;;;;;4925938;29;20174;-86
2022/01/25 11:45:34;;;;;;;93.88;19.63;;;5.10;99.90;;;;;;4910418;29;20178;-87
2022/01/25 11:47:59;;;;;;;97.18;21.02;;;5.20;99.90;;;;;;4910565;29;20204;-87
2022/01/25 11:50:34;;;;;;;93.40;22.10;;;5.30;99.90;;;;;;4921786;29;20182;-87
2022/01/25 11:53:09;;;;;;;99.53;22.20;;;5.20;99.90;;;;;;4919681;29;20434;-87
2022/01/25 11:55:42;;;;;;;94.68;21.70;;;5.20;99.90;;;;;;4918292;29;20259;-87
2022/01/25 11:58:10;;;;;;;98.70;21.92;;;5.30;99.90;;;;;;4918618;29;20190;-87
2022/01/25 12:00:51;;;;;;;93.22;24.33;;;5.20;99.90;;;;;;4903501;29;20217;-87
2022/01/25 12:03:39;;;;;;;96.47;25.48;;;5.10;99.90;;;;;;4906056;29;20161;-86
2022/01/25 12:06:37;;;;;;;94.50;22.67;;;5.20;99.90;;;;;;4905074;29;20240;-87
2022/01/25 12:12:14;;;;;;;96.07;21.92;;;5.20;99.90;;;;;;4905492;29;20190;-87
2022/01/25 12:14:41;;;;;;;102.15;27.77;;;5.20;99.90;;;;;;4902142;29;20260;-87
2022/01/25 12:17:30;;;;;;;;;;;;;;;;;;;;;
2022/01/25 12:20:21;;;;;;;106.68;29.67;;;5.20;99.90;;;;;;4905155;29;20271;-87
2022/01/25 12:23:08;;;;;;;96.95;31.00;;;5.20;99.90;;;;;;4904841;29;20142;-87
2022/01/25 12:25:54;;;;;;;93.18;28.83;;;5.20;99.90;;;;;;4919436;29;20189;-87
2022/01/25 12:28:47;;;;;;;101.35;31.52;;;5.20;99.90;;;;;;4907324;29;20182;-87
2022/01/25 12:31:19;;;;;;;102.00;23.35;;;5.30;99.90;;;;;;4912126;29;20150;-87
2022/01/25 12:33:46;;;;;;;98.60;24.35;;;5.30;99.90;;;;;;4912758;29;20242;-87
2022/01/25 12:36:43;;;;;;;99.80;25.00;;;5.30;99.90;;;;;;4926696;29;20193;-87
2022/01/25 12:39:11;;;;;;;103.40;25.50;;;5.30;99.90;;;;;;4909502;29;20197;-87
2022/01/25 12:41:39;;;;;;;90.78;20.95;;;5.40;99.90;;;;;;4922861;29;20173;-87
2022/01/25 12:44:13;;;;;;;96.25;22.83;;;5.50;99.90;;;;;;4922687;29;20256;-86
2022/01/25 12:47:08;;;;;;;;;;;;;;;;;;;;;
2022/01/25 12:49:45;;;;;;;95.38;20.80;;;5.50;99.90;;;;;;4911576;29;20268;-87
2022/01/25 12:52:21;;;;;;;97.22;22.85;;;5.50;99.90;;;;;;4923362;29;20166;-87
2022/01/25 12:55:18;;;;;;;96.40;23.13;;;5.40;99.90;;;;;;4924036;29;20209;-87
2022/01/25 12:58:22;;;;;;;96.00;23.05;;;5.40;99.90;;;;;;4907924;29;20249;-87
2022/01/25 13:01:27;;;;;;;;;;;;;;;;;;;;;
2022/01/25 13:04:18;;;;;;;97.43;21.58;;;5.40;99.90;;;;;;4886273;29;20159;-88
2022/01/25 13:07:15;;;;;;;;;;;;;;;;;;;;;
2022/01/25 13:09:58;;;;;;;94.60;21.60;;;5.40;99.90;;;;;;4906433;29;20266;-87
2022/01/25 13:13:11;;;;;;;95.15;22.33;;;5.40;99.90;;;;;;4921105;29;20186;-87
2022/01/25 13:18:44;;;;;;;104.60;23.80;;;5.40;99.90;;;;;;4906034;29;20302;-87
2022/01/25 13:21:10;;;;;;;92.78;27.17;;;5.40;99.90;;;;;;4910223;29;20174;-87
2022/01/25 13:23:50;;;;;;;93.93;24.40;;;5.30;99.90;;;;;;4928666;29;20224;-87
2022/01/25 13:26:16;;;;;;;97.40;22.95;;;5.40;99.90;;;;;;4912666;29;20922;-86
2022/01/25 13:31:20;;;;;;;103.85;28.42;;;5.40;99.90;;;;;;4907806;29;20569;-87
2022/01/25 13:34:03;;;;;;;103.68;28.05;;;5.50;99.90;;;;;;4922043;29;20542;-87
2022/01/25 13:36:35;;;;;;;100.38;31.67;;;5.40;99.90;;;;;;4922724;29;20174;-87
2022/01/25 13:39:15;;;;;;;100.55;32.22;;;5.40;99.90;;;;;;4921341;29;20202;-87
2022/01/25 13:41:53;;;;;;;96.55;22.52;;;5.50;99.90;;;;;;4904320;29;20177;-87
2022/01/25 13:53:31;;;;;;;;;;;;;;;;;;;;;
2022/01/25 13:59:16;;;;;;;107.40;22.52;;;5.50;99.90;;;;;;5052533;23;20239;-88
2022/01/25 14:50:33;;;;;;;101.85;23.98;;;5.30;99.90;;;;;;4897644;29;20265;-86
2022/01/25 14:54:03;;;;;;;100.90;24.08;;;5.40;99.90;;;;;;4878011;29;20282;-86
2022/01/25 14:56:49;;;;;;;;;;;;;;;;;;;;;
2022/01/25 14:59:46;;;;;;;;;;;;;;;;;;;;;
2022/01/25 15:03:03;;;;;;;106.85;24.95;;;5.40;99.90;;;;;;4898357;29;20180;-86
2022/01/25 15:13:03;;;;;;;97.97;25.23;;;5.20;99.90;;;;;;4878686;29;20213;-88
2022/01/25 15:16:07;;;;;;;103.70;26.50;;;5.30;99.90;;;;;;4822603;29;20212;-88
2022/01/25 15:26:41;;;;;;;104.53;25.80;;;5.20;99.90;;;;;;4823037;29;20276;-88
2022/01/25 15:33:22;;;;;;;100.95;26.13;;;5.20;99.90;;;;;;4855421;29;20224;-88
2022/01/25 15:47:00;;;;;;;109.80;34.55;;;5.00;99.90;;;;;;5100362;23;20243;-86
2022/01/25 15:49:47;;;;;;;106.85;32.53;;;5.00;99.90;;;;;;4936924;29;20201;-86
2022/01/25 15:52:49;;;;;;;116.15;40.05;;;4.90;99.90;;;;;;4937016;29;20168;-86
2022/01/25 16:20:46;;;;;;;;;;;;;;;;;;;;;
2022/01/25 16:23:13;;;;;;;110.05;32.05;;;4.90;99.90;;;;;;4781536;30;20178;-86
2022/01/25 16:25:45;;;;;;;113.95;46.08;;;4.90;99.90;;;;;;4858984;29;20218;-86
2022/01/25 16:28:14;;;;;;;116.10;59.97;;;4.80;99.90;;;;;;4887804;29;20182;-85
2022/01/25 16:30:40;;;;;;;121.93;64.07;;;4.80;99.90;;;;;;4898789;29;20170;-85
2022/01/25 16:33:05;;;;;;;118.93;74.40;;;4.90;99.90;;;;;;4913046;29;20177;-86
2022/01/25 16:35:31;;;;;;;139.73;87.63;;;4.90;99.90;;;;;;4912815;29;20982;-86
2022/01/25 16:38:14;;;;;;;119.67;65.47;;;4.80;99.90;;;;;;4898326;29;20221;-86
2022/01/25 16:44:25;;;;;;;117.55;57.03;;;4.80;99.90;;;;;;4879187;29;20206;-85
2022/01/25 16:47:43;;;;;;;;;;;;;;;;;;;;;
2022/01/25 16:54:08;;;;;;;112.05;54.17;;;4.70;99.90;;;;;;4859020;29;20194;-85
2022/01/25 16:56:44;;;;;;;108.82;54.42;;;4.80;99.90;;;;;;4874549;29;20213;-85
2022/01/25 16:59:25;;;;;;;116.75;61.33;;;4.80;99.90;;;;;;4898194;29;20533;-85
2022/01/25 17:01:53;;;;;;;123.13;65.95;;;4.70;99.90;;;;;;4898575;29;20194;-85
2022/01/25 17:35:48;;;;;;;108.97;67.68;;;4.70;99.90;;;;;;5517242;23;20591;-88
2022/01/25 17:38:14;;;;;;;108.43;62.67;;;4.70;99.90;;;;;;4939589;29;20279;-88
2022/01/25 17:40:44;;;;;;;109.07;57.17;;;4.70;99.90;;;;;;4939329;29;20440;-88
2022/01/25 17:43:27;;;;;;;110.72;62.50;;;4.70;99.90;;;;;;4938089;29;20509;-88
2022/01/25 17:45:57;;;;;;;115.80;59.28;;;4.80;99.90;;;;;;4939382;29;20185;-88
2022/01/25 17:48:23;;;;;;;108.88;64.60;;;4.80;99.90;;;;;;4938168;29;20173;-88
2022/01/25 17:50:56;;;;;;;113.88;75.50;;;4.70;99.90;;;;;;4939457;29;20181;-88
2022/01/25 17:53:22;;;;;;;111.22;63.38;;;4.70;99.90;;;;;;4939445;29;20172;-88
2022/01/25 17:55:48;;;;;;;112.63;59.17;;;4.60;99.90;;;;;;4937937;29;20201;-88
2022/01/25 17:58:19;;;;;;;113.18;65.72;;;4.60;99.90;;;;;;4938999;29;20518;-88
2022/01/25 18:00:47;;;;;;;110.22;60.60;;;4.60;99.90;;;;;;4937939;29;20621;-88
2022/01/25 18:03:20;;;;;;;107.68;66.25;;;4.60;99.90;;;;;;4937843;29;20576;-88
2022/01/25 18:05:49;;;;;;;111.22;66.40;;;4.60;99.90;;;;;;4937270;29;20668;-88
2022/01/25 18:08:15;;;;;;;112.00;64.10;;;4.60;99.90;;;;;;4939080;29;20187;-88
2022/01/25 18:11:06;;;;;;;111.57;61.13;;;4.50;99.90;;;;;;4939025;29;20239;-87
2022/01/25 18:13:53;;;;;;;107.45;57.65;;;4.50;99.90;;;;;;4938566;29;20188;-88
2022/01/25 18:16:22;;;;;;;111.60;63.72;;;4.50;99.90;;;;;;4939003;29;20157;-88
2022/01/25 18:18:54;;;;;;;107.30;57.25;;;4.60;99.90;;;;;;4938414;29;20215;-88
2022/01/25 18:21:28;;;;;;;103.00;50.80;;;4.70;99.90;;;;;;4937169;29;20540;-88
2022/01/25 18:24:06;;;;;;;104.78;55.53;;;4.70;99.90;;;;;;4938413;29;20144;-88
2022/01/25 18:26:47;;;;;;;107.65;43.05;;;4.60;99.90;;;;;;4937947;29;20177;-88
2022/01/25 18:29:18;;;;;;;100.60;39.95;;;4.50;99.90;;;;;;4938341;29;20247;-88
2022/01/25 18:31:51;;;;;;;98.38;41.03;;;4.60;99.90;;;;;;4937129;29;20671;-88
2022/01/25 18:34:20;;;;;;;99.68;34.28;;;4.60;99.90;;;;;;4938457;29;20188;-85
2022/01/25 18:36:46;;;;;;;102.75;41.70;;;4.70;99.90;;;;;;4938149;29;20278;-85
2022/01/25 18:39:16;;;;;;;95.07;32.93;;;4.70;99.90;;;;;;4938344;29;20188;-85
2022/01/25 18:41:44;;;;;;;103.82;25.40;;;4.70;99.90;;;;;;4939085;29;20467;-85